sensor_id;sensor_type;location;lat;lon;timestamp;P1;durP1;ratioP1;P2;durP2;ratioP2
70313;SDS011;71040;47.526;18.986;2023-09-19T00:02:54;10.70;;;6.30;;
70313;SDS011;71040;47.526;18.986;2023-09-19T00:07:55;10.10;;;5.30;;
70313;SDS011;71040;47.526;18.986;2023-09-19T00:13:00;8.63;;;6.40;;
70313;SDS011;71040;47.526;18.986;2023-09-19T00:18:07;12.87;;;6.73;;
70313;SDS011;71040;47.526;18.986;2023-09-19T00:23:11;14.48;;;7.38;;
70313;SDS011;71040;47.526;18.986;2023-09-19T00:28:13;8.90;;;5.70;;
70313;SDS011;71040;47.526;18.986;2023-09-19T00:33:18;9.15;;;6.38;;
70313;SDS011;71040;47.526;18.986;2023-09-19T00:38:19;10.30;;;6.63;;
70313;SDS011;71040;47.526;18.986;2023-09-19T00:43:22;12.30;;;6.50;;
70313;SDS011;71040;47.526;18.986;2023-09-19T00:48:24;11.82;;;6.97;;
70313;SDS011;71040;47.526;18.986;2023-09-19T00:53:27;9.27;;;6.53;;
70313;SDS011;71040;47.526;18.986;2023-09-19T00:58:34;12.38;;;7.63;;
70313;SDS011;71040;47.526;18.986;2023-09-19T01:03:39;8.65;;;6.57;;
70313;SDS011;71040;47.526;18.986;2023-09-19T01:08:41;11.45;;;7.93;;
70313;SDS011;71040;47.526;18.986;2023-09-19T01:13:57;13.52;;;7.28;;
70313;SDS011;71040;47.526;18.986;2023-09-19T01:30:13;11.10;;;7.90;;
70313;SDS011;71040;47.526;18.986;2023-09-19T01:35:18;9.48;;;7.22;;
70313;SDS011;71040;47.526;18.986;2023-09-19T01:40:21;9.95;;;8.30;;
70313;SDS011;71040;47.526;18.986;2023-09-19T01:50:58;12.65;;;7.47;;
70313;SDS011;71040;47.526;18.986;2023-09-19T01:56:07;12.15;;;7.47;;
70313;SDS011;71040;47.526;18.986;2023-09-19T02:01:17;13.50;;;8.30;;
70313;SDS011;71040;47.526;18.986;2023-09-19T02:06:22;9.23;;;7.55;;
70313;SDS011;71040;47.526;18.986;2023-09-19T02:11:25;11.32;;;7.25;;
70313;SDS011;71040;47.526;18.986;2023-09-19T02:16:27;12.57;;;8.55;;
70313;SDS011;71040;47.526;18.986;2023-09-19T02:21:30;11.63;;;8.00;;
70313;SDS011;71040;47.526;18.986;2023-09-19T02:26:34;13.27;;;8.35;;
70313;SDS011;71040;47.526;18.986;2023-09-19T02:31:40;8.27;;;6.20;;
70313;SDS011;71040;47.526;18.986;2023-09-19T02:36:45;10.65;;;8.63;;
70313;SDS011;71040;47.526;18.986;2023-09-19T02:41:46;17.13;;;9.23;;
70313;SDS011;71040;47.526;18.986;2023-09-19T02:46:48;16.27;;;9.18;;
70313;SDS011;71040;47.526;18.986;2023-09-19T02:51:49;13.90;;;8.40;;
70313;SDS011;71040;47.526;18.986;2023-09-19T02:56:54;13.48;;;8.35;;
70313;SDS011;71040;47.526;18.986;2023-09-19T03:01:57;20.75;;;9.02;;
70313;SDS011;71040;47.526;18.986;2023-09-19T03:07:09;10.60;;;7.30;;
70313;SDS011;71040;47.526;18.986;2023-09-19T03:12:14;17.30;;;7.82;;
70313;SDS011;71040;47.526;18.986;2023-09-19T03:17:19;14.98;;;8.05;;
70313;SDS011;71040;47.526;18.986;2023-09-19T03:22:22;10.65;;;6.88;;
70313;SDS011;71040;47.526;18.986;2023-09-19T03:27:22;11.00;;;7.78;;
70313;SDS011;71040;47.526;18.986;2023-09-19T03:32:25;10.93;;;7.88;;
70313;SDS011;71040;47.526;18.986;2023-09-19T03:37:26;13.00;;;8.73;;
70313;SDS011;71040;47.526;18.986;2023-09-19T03:42:26;8.87;;;7.57;;
70313;SDS011;71040;47.526;18.986;2023-09-19T03:47:27;8.17;;;7.03;;
70313;SDS011;71040;47.526;18.986;2023-09-19T03:52:27;12.80;;;8.70;;
70313;SDS011;71040;47.526;18.986;2023-09-19T03:57:30;10.20;;;7.43;;
70313;SDS011;71040;47.526;18.986;2023-09-19T04:02:30;9.95;;;6.53;;
70313;SDS011;71040;47.526;18.986;2023-09-19T04:07:35;11.30;;;7.00;;
70313;SDS011;71040;47.526;18.986;2023-09-19T04:12:36;8.20;;;6.50;;
70313;SDS011;71040;47.526;18.986;2023-09-19T04:17:36;13.37;;;7.07;;
70313;SDS011;71040;47.526;18.986;2023-09-19T04:22:37;10.33;;;6.90;;
70313;SDS011;71040;47.526;18.986;2023-09-19T04:27:39;10.48;;;5.75;;
70313;SDS011;71040;47.526;18.986;2023-09-19T04:32:44;7.57;;;4.80;;
70313;SDS011;71040;47.526;18.986;2023-09-19T04:37:50;9.73;;;4.00;;
70313;SDS011;71040;47.526;18.986;2023-09-19T04:42:55;7.45;;;2.70;;
70313;SDS011;71040;47.526;18.986;2023-09-19T04:48:02;6.60;;;2.53;;
70313;SDS011;71040;47.526;18.986;2023-09-19T04:53:05;4.88;;;1.80;;
70313;SDS011;71040;47.526;18.986;2023-09-19T04:58:07;4.47;;;1.40;;
70313;SDS011;71040;47.526;18.986;2023-09-19T05:03:12;3.75;;;1.55;;
70313;SDS011;71040;47.526;18.986;2023-09-19T05:08:15;5.55;;;1.27;;
70313;SDS011;71040;47.526;18.986;2023-09-19T05:13:17;5.60;;;1.80;;
70313;SDS011;71040;47.526;18.986;2023-09-19T05:18:21;2.25;;;1.30;;
70313;SDS011;71040;47.526;18.986;2023-09-19T05:23:24;3.08;;;1.83;;
70313;SDS011;71040;47.526;18.986;2023-09-19T05:28:27;2.38;;;0.50;;
70313;SDS011;71040;47.526;18.986;2023-09-19T05:33:30;2.42;;;0.57;;
70313;SDS011;71040;47.526;18.986;2023-09-19T05:38:39;3.45;;;0.60;;
70313;SDS011;71040;47.526;18.986;2023-09-19T05:43:42;2.30;;;0.75;;
70313;SDS011;71040;47.526;18.986;2023-09-19T05:48:43;3.85;;;0.30;;
70313;SDS011;71040;47.526;18.986;2023-09-19T05:53:44;7.25;;;1.20;;
70313;SDS011;71040;47.526;18.986;2023-09-19T05:58:44;5.97;;;0.43;;
70313;SDS011;71040;47.526;18.986;2023-09-19T06:03:48;3.03;;;0.85;;
70313;SDS011;71040;47.526;18.986;2023-09-19T06:08:51;6.65;;;1.40;;
70313;SDS011;71040;47.526;18.986;2023-09-19T06:13:52;2.15;;;0.70;;
70313;SDS011;71040;47.526;18.986;2023-09-19T06:18:53;5.32;;;1.10;;
70313;SDS011;71040;47.526;18.986;2023-09-19T06:23:54;4.38;;;0.68;;
70313;SDS011;71040;47.526;18.986;2023-09-19T06:28:58;1.38;;;0.57;;
70313;SDS011;71040;47.526;18.986;2023-09-19T06:34:00;2.00;;;0.80;;
70313;SDS011;71040;47.526;18.986;2023-09-19T06:39:15;1.75;;;0.50;;
70313;SDS011;71040;47.526;18.986;2023-09-19T06:44:18;2.23;;;0.40;;
70313;SDS011;71040;47.526;18.986;2023-09-19T06:49:24;1.42;;;0.40;;
70313;SDS011;71040;47.526;18.986;2023-09-19T06:54:29;2.15;;;0.52;;
70313;SDS011;71040;47.526;18.986;2023-09-19T06:59:35;2.03;;;0.40;;
70313;SDS011;71040;47.526;18.986;2023-09-19T07:04:38;0.57;;;0.20;;
70313;SDS011;71040;47.526;18.986;2023-09-19T07:09:41;0.60;;;0.40;;
70313;SDS011;71040;47.526;18.986;2023-09-19T07:14:44;2.92;;;0.32;;
70313;SDS011;71040;47.526;18.986;2023-09-19T07:19:45;6.37;;;0.40;;
70313;SDS011;71040;47.526;18.986;2023-09-19T07:24:48;0.80;;;0.30;;
70313;SDS011;71040;47.526;18.986;2023-09-19T07:29:55;0.30;;;0.20;;
70313;SDS011;71040;47.526;18.986;2023-09-19T07:34:58;1.85;;;0.25;;
70313;SDS011;71040;47.526;18.986;2023-09-19T07:40:04;0.50;;;0.17;;
70313;SDS011;71040;47.526;18.986;2023-09-19T07:45:09;1.13;;;0.10;;
70313;SDS011;71040;47.526;18.986;2023-09-19T07:50:22;1.50;;;0.10;;
70313;SDS011;71040;47.526;18.986;2023-09-19T07:55:26;1.40;;;0.20;;
70313;SDS011;71040;47.526;18.986;2023-09-19T08:00:29;0.50;;;0.20;;
70313;SDS011;71040;47.526;18.986;2023-09-19T08:05:29;1.20;;;0.20;;
70313;SDS011;71040;47.526;18.986;2023-09-19T08:10:30;1.27;;;0.30;;
70313;SDS011;71040;47.526;18.986;2023-09-19T08:15:35;0.85;;;0.20;;
70313;SDS011;71040;47.526;18.986;2023-09-19T08:20:48;0.63;;;0.28;;
70313;SDS011;71040;47.526;18.986;2023-09-19T08:25:58;0.40;;;0.22;;
70313;SDS011;71040;47.526;18.986;2023-09-19T08:31:05;1.90;;;0.55;;
70313;SDS011;71040;47.526;18.986;2023-09-19T08:36:06;0.30;;;0.10;;
70313;SDS011;71040;47.526;18.986;2023-09-19T08:41:09;0.80;;;0.30;;
70313;SDS011;71040;47.526;18.986;2023-09-19T08:46:10;0.60;;;0.20;;
70313;SDS011;71040;47.526;18.986;2023-09-19T08:51:18;0.85;;;0.45;;
70313;SDS011;71040;47.526;18.986;2023-09-19T08:56:28;1.50;;;0.10;;
70313;SDS011;71040;47.526;18.986;2023-09-19T09:01:31;1.02;;;0.30;;
70313;SDS011;71040;47.526;18.986;2023-09-19T09:06:34;0.40;;;0.10;;
70313;SDS011;71040;47.526;18.986;2023-09-19T09:11:36;0.60;;;0.10;;
70313;SDS011;71040;47.526;18.986;2023-09-19T09:16:39;0.77;;;0.10;;
70313;SDS011;71040;47.526;18.986;2023-09-19T09:21:42;0.82;;;0.25;;
70313;SDS011;71040;47.526;18.986;2023-09-19T09:26:45;0.40;;;0.20;;
70313;SDS011;71040;47.526;18.986;2023-09-19T09:31:49;0.47;;;0.28;;
70313;SDS011;71040;47.526;18.986;2023-09-19T09:36:50;0.30;;;0.20;;
70313;SDS011;71040;47.526;18.986;2023-09-19T09:41:53;0.45;;;0.10;;
70313;SDS011;71040;47.526;18.986;2023-09-19T09:46:59;0.40;;;0.20;;
70313;SDS011;71040;47.526;18.986;2023-09-19T09:52:22;0.10;;;0.10;;
70313;SDS011;71040;47.526;18.986;2023-09-19T09:57:24;0.85;;;0.40;;
70313;SDS011;71040;47.526;18.986;2023-09-19T10:02:26;0.50;;;0.20;;
70313;SDS011;71040;47.526;18.986;2023-09-19T10:07:36;0.57;;;0.15;;
70313;SDS011;71040;47.526;18.986;2023-09-19T10:12:46;2.22;;;0.40;;
70313;SDS011;71040;47.526;18.986;2023-09-19T10:17:50;0.70;;;0.20;;
70313;SDS011;71040;47.526;18.986;2023-09-19T10:22:54;0.32;;;0.10;;
70313;SDS011;71040;47.526;18.986;2023-09-19T10:28:00;1.13;;;0.25;;
70313;SDS011;71040;47.526;18.986;2023-09-19T10:33:11;0.82;;;0.38;;
70313;SDS011;71040;47.526;18.986;2023-09-19T10:38:17;0.55;;;0.30;;
70313;SDS011;71040;47.526;18.986;2023-09-19T10:43:25;0.73;;;0.20;;
70313;SDS011;71040;47.526;18.986;2023-09-19T10:48:31;0.45;;;0.10;;
70313;SDS011;71040;47.526;18.986;2023-09-19T10:53:48;0.93;;;0.20;;
70313;SDS011;71040;47.526;18.986;2023-09-19T10:58:50;0.50;;;0.35;;
70313;SDS011;71040;47.526;18.986;2023-09-19T11:03:53;0.30;;;0.17;;
70313;SDS011;71040;47.526;18.986;2023-09-19T11:09:23;0.35;;;0.10;;
70313;SDS011;71040;47.526;18.986;2023-09-19T11:30:35;0.30;;;0.10;;
70313;SDS011;71040;47.526;18.986;2023-09-19T11:46:20;0.60;;;0.13;;
70313;SDS011;71040;47.526;18.986;2023-09-19T11:51:23;0.73;;;0.20;;
70313;SDS011;71040;47.526;18.986;2023-09-19T11:56:38;0.50;;;0.20;;
70313;SDS011;71040;47.526;18.986;2023-09-19T12:01:54;0.30;;;0.20;;
70313;SDS011;71040;47.526;18.986;2023-09-19T12:06:58;0.70;;;0.20;;
70313;SDS011;71040;47.526;18.986;2023-09-19T12:11:58;0.60;;;0.20;;
70313;SDS011;71040;47.526;18.986;2023-09-19T12:17:01;0.60;;;0.20;;
70313;SDS011;71040;47.526;18.986;2023-09-19T12:22:05;0.50;;;0.20;;
70313;SDS011;71040;47.526;18.986;2023-09-19T12:27:09;0.75;;;0.32;;
70313;SDS011;71040;47.526;18.986;2023-09-19T12:32:11;0.40;;;0.10;;
70313;SDS011;71040;47.526;18.986;2023-09-19T12:37:13;0.75;;;0.30;;
70313;SDS011;71040;47.526;18.986;2023-09-19T12:47:27;0.40;;;0.20;;
70313;SDS011;71040;47.526;18.986;2023-09-19T12:52:37;0.68;;;0.30;;
70313;SDS011;71040;47.526;18.986;2023-09-19T12:57:38;0.90;;;0.30;;
70313;SDS011;71040;47.526;18.986;2023-09-19T13:18:50;1.25;;;0.68;;
70313;SDS011;71040;47.526;18.986;2023-09-19T13:23:53;0.40;;;0.17;;
70313;SDS011;71040;47.526;18.986;2023-09-19T13:29:15;0.45;;;0.30;;
70313;SDS011;71040;47.526;18.986;2023-09-19T13:34:18;0.43;;;0.20;;
70313;SDS011;71040;47.526;18.986;2023-09-19T13:39:19;0.55;;;0.20;;
70313;SDS011;71040;47.526;18.986;2023-09-19T13:44:20;0.80;;;0.20;;
70313;SDS011;71040;47.526;18.986;2023-09-19T13:49:23;0.43;;;0.20;;
70313;SDS011;71040;47.526;18.986;2023-09-19T13:54:26;0.93;;;0.40;;
70313;SDS011;71040;47.526;18.986;2023-09-19T13:59:26;0.50;;;0.20;;
70313;SDS011;71040;47.526;18.986;2023-09-19T14:04:28;0.40;;;0.20;;
70313;SDS011;71040;47.526;18.986;2023-09-19T14:09:33;0.70;;;0.28;;
70313;SDS011;71040;47.526;18.986;2023-09-19T14:14:38;0.77;;;0.30;;
70313;SDS011;71040;47.526;18.986;2023-09-19T14:19:40;0.80;;;0.23;;
70313;SDS011;71040;47.526;18.986;2023-09-19T14:24:41;0.68;;;0.30;;
70313;SDS011;71040;47.526;18.986;2023-09-19T14:29:42;0.97;;;0.30;;
70313;SDS011;71040;47.526;18.986;2023-09-19T14:34:44;0.60;;;0.15;;
70313;SDS011;71040;47.526;18.986;2023-09-19T14:39:45;1.20;;;0.65;;
70313;SDS011;71040;47.526;18.986;2023-09-19T14:44:51;1.10;;;0.20;;
70313;SDS011;71040;47.526;18.986;2023-09-19T14:49:51;1.23;;;0.30;;
70313;SDS011;71040;47.526;18.986;2023-09-19T14:54:52;0.70;;;0.20;;
70313;SDS011;71040;47.526;18.986;2023-09-19T14:59:55;0.60;;;0.30;;
70313;SDS011;71040;47.526;18.986;2023-09-19T15:04:58;1.02;;;0.30;;
70313;SDS011;71040;47.526;18.986;2023-09-19T15:09:58;1.30;;;0.30;;
70313;SDS011;71040;47.526;18.986;2023-09-19T15:15:01;1.07;;;0.47;;
70313;SDS011;71040;47.526;18.986;2023-09-19T15:20:02;0.98;;;0.40;;
70313;SDS011;71040;47.526;18.986;2023-09-19T15:25:07;0.68;;;0.30;;
70313;SDS011;71040;47.526;18.986;2023-09-19T15:30:10;0.80;;;0.30;;
70313;SDS011;71040;47.526;18.986;2023-09-19T15:35:11;2.00;;;0.40;;
70313;SDS011;71040;47.526;18.986;2023-09-19T15:40:19;0.60;;;0.30;;
70313;SDS011;71040;47.526;18.986;2023-09-19T15:45:19;1.10;;;0.40;;
70313;SDS011;71040;47.526;18.986;2023-09-19T15:50:20;0.57;;;0.20;;
70313;SDS011;71040;47.526;18.986;2023-09-19T15:55:21;0.65;;;0.30;;
70313;SDS011;71040;47.526;18.986;2023-09-19T16:00:26;0.45;;;0.13;;
70313;SDS011;71040;47.526;18.986;2023-09-19T16:05:34;0.57;;;0.32;;
70313;SDS011;71040;47.526;18.986;2023-09-19T16:10:36;1.15;;;0.40;;
70313;SDS011;71040;47.526;18.986;2023-09-19T16:15:42;0.80;;;0.35;;
70313;SDS011;71040;47.526;18.986;2023-09-19T16:20:47;0.77;;;0.20;;
70313;SDS011;71040;47.526;18.986;2023-09-19T16:25:59;0.68;;;0.22;;
70313;SDS011;71040;47.526;18.986;2023-09-19T16:31:09;0.63;;;0.30;;
70313;SDS011;71040;47.526;18.986;2023-09-19T16:36:10;0.80;;;0.35;;
70313;SDS011;71040;47.526;18.986;2023-09-19T16:41:11;0.40;;;0.20;;
70313;SDS011;71040;47.526;18.986;2023-09-19T16:46:13;0.50;;;0.20;;
70313;SDS011;71040;47.526;18.986;2023-09-19T16:51:16;0.60;;;0.30;;
70313;SDS011;71040;47.526;18.986;2023-09-19T16:56:17;1.00;;;0.30;;
70313;SDS011;71040;47.526;18.986;2023-09-19T17:01:18;0.60;;;0.45;;
70313;SDS011;71040;47.526;18.986;2023-09-19T17:06:21;0.68;;;0.20;;
70313;SDS011;71040;47.526;18.986;2023-09-19T17:11:27;0.52;;;0.30;;
70313;SDS011;71040;47.526;18.986;2023-09-19T17:16:30;0.60;;;0.30;;
70313;SDS011;71040;47.526;18.986;2023-09-19T17:21:34;0.75;;;0.20;;
70313;SDS011;71040;47.526;18.986;2023-09-19T17:26:35;1.15;;;0.65;;
70313;SDS011;71040;47.526;18.986;2023-09-19T17:31:35;0.75;;;0.30;;
70313;SDS011;71040;47.526;18.986;2023-09-19T17:36:36;0.73;;;0.30;;
70313;SDS011;71040;47.526;18.986;2023-09-19T17:41:39;0.63;;;0.40;;
70313;SDS011;71040;47.526;18.986;2023-09-19T17:46:44;0.57;;;0.30;;
70313;SDS011;71040;47.526;18.986;2023-09-19T17:51:44;0.80;;;0.40;;
70313;SDS011;71040;47.526;18.986;2023-09-19T17:56:45;0.87;;;0.40;;
70313;SDS011;71040;47.526;18.986;2023-09-19T18:01:47;0.70;;;0.40;;
70313;SDS011;71040;47.526;18.986;2023-09-19T18:06:50;0.80;;;0.40;;
70313;SDS011;71040;47.526;18.986;2023-09-19T18:11:50;3.70;;;0.75;;
70313;SDS011;71040;47.526;18.986;2023-09-19T18:16:53;1.80;;;0.57;;
70313;SDS011;71040;47.526;18.986;2023-09-19T18:21:56;0.80;;;0.47;;
70313;SDS011;71040;47.526;18.986;2023-09-19T18:27:00;1.40;;;0.38;;
70313;SDS011;71040;47.526;18.986;2023-09-19T18:32:01;1.33;;;0.55;;
70313;SDS011;71040;47.526;18.986;2023-09-19T18:37:02;1.63;;;0.60;;
70313;SDS011;71040;47.526;18.986;2023-09-19T18:42:04;4.80;;;1.20;;
70313;SDS011;71040;47.526;18.986;2023-09-19T18:47:05;4.20;;;0.57;;
70313;SDS011;71040;47.526;18.986;2023-09-19T18:52:08;2.30;;;0.90;;
70313;SDS011;71040;47.526;18.986;2023-09-19T18:57:08;2.97;;;1.10;;
70313;SDS011;71040;47.526;18.986;2023-09-19T19:02:08;1.37;;;0.70;;
70313;SDS011;71040;47.526;18.986;2023-09-19T19:07:13;1.23;;;0.75;;
70313;SDS011;71040;47.526;18.986;2023-09-19T19:12:17;2.85;;;0.90;;
70313;SDS011;71040;47.526;18.986;2023-09-19T19:17:18;2.47;;;1.15;;
70313;SDS011;71040;47.526;18.986;2023-09-19T19:22:21;4.60;;;1.20;;
70313;SDS011;71040;47.526;18.986;2023-09-19T19:27:21;2.53;;;1.50;;
70313;SDS011;71040;47.526;18.986;2023-09-19T19:32:22;2.87;;;1.40;;
70313;SDS011;71040;47.526;18.986;2023-09-19T19:37:26;1.70;;;1.10;;
70313;SDS011;71040;47.526;18.986;2023-09-19T19:42:26;1.67;;;1.07;;
70313;SDS011;71040;47.526;18.986;2023-09-19T19:47:30;1.63;;;0.88;;
70313;SDS011;71040;47.526;18.986;2023-09-19T19:52:31;1.58;;;0.93;;
70313;SDS011;71040;47.526;18.986;2023-09-19T19:57:32;2.38;;;1.45;;
70313;SDS011;71040;47.526;18.986;2023-09-19T20:02:35;6.78;;;1.83;;
70313;SDS011;71040;47.526;18.986;2023-09-19T20:07:35;7.90;;;2.33;;
70313;SDS011;71040;47.526;18.986;2023-09-19T20:12:38;4.13;;;1.20;;
70313;SDS011;71040;47.526;18.986;2023-09-19T20:17:39;3.20;;;1.45;;
70313;SDS011;71040;47.526;18.986;2023-09-19T20:22:42;1.25;;;0.70;;
70313;SDS011;71040;47.526;18.986;2023-09-19T20:27:42;2.07;;;0.97;;
70313;SDS011;71040;47.526;18.986;2023-09-19T20:32:47;2.65;;;1.17;;
70313;SDS011;71040;47.526;18.986;2023-09-19T20:37:47;2.38;;;1.00;;
70313;SDS011;71040;47.526;18.986;2023-09-19T20:42:51;1.77;;;1.15;;
70313;SDS011;71040;47.526;18.986;2023-09-19T20:47:53;2.33;;;1.30;;
70313;SDS011;71040;47.526;18.986;2023-09-19T20:52:54;2.30;;;1.10;;
70313;SDS011;71040;47.526;18.986;2023-09-19T20:57:54;2.50;;;1.13;;
70313;SDS011;71040;47.526;18.986;2023-09-19T21:02:57;1.85;;;1.10;;
70313;SDS011;71040;47.526;18.986;2023-09-19T21:07:58;1.20;;;0.82;;
70313;SDS011;71040;47.526;18.986;2023-09-19T21:13:01;1.13;;;0.60;;
70313;SDS011;71040;47.526;18.986;2023-09-19T21:18:06;1.20;;;0.60;;
70313;SDS011;71040;47.526;18.986;2023-09-19T21:23:07;3.10;;;1.07;;
70313;SDS011;71040;47.526;18.986;2023-09-19T21:28:13;1.48;;;0.80;;
70313;SDS011;71040;47.526;18.986;2023-09-19T21:33:14;1.75;;;0.80;;
70313;SDS011;71040;47.526;18.986;2023-09-19T21:38:15;0.90;;;0.60;;
70313;SDS011;71040;47.526;18.986;2023-09-19T21:43:15;1.53;;;1.00;;
70313;SDS011;71040;47.526;18.986;2023-09-19T21:48:16;2.00;;;1.25;;
70313;SDS011;71040;47.526;18.986;2023-09-19T21:53:19;1.63;;;0.80;;
70313;SDS011;71040;47.526;18.986;2023-09-19T21:58:22;1.73;;;0.90;;
70313;SDS011;71040;47.526;18.986;2023-09-19T22:03:22;1.47;;;0.80;;
70313;SDS011;71040;47.526;18.986;2023-09-19T22:08:31;1.25;;;0.75;;
70313;SDS011;71040;47.526;18.986;2023-09-19T22:13:35;1.40;;;1.02;;
70313;SDS011;71040;47.526;18.986;2023-09-19T22:18:43;1.15;;;0.70;;
70313;SDS011;71040;47.526;18.986;2023-09-19T22:23:50;1.02;;;0.60;;
70313;SDS011;71040;47.526;18.986;2023-09-19T22:28:53;1.15;;;0.60;;
70313;SDS011;71040;47.526;18.986;2023-09-19T22:33:57;1.60;;;0.90;;
70313;SDS011;71040;47.526;18.986;2023-09-19T22:39:02;1.40;;;0.70;;
70313;SDS011;71040;47.526;18.986;2023-09-19T22:44:15;1.15;;;0.65;;
70313;SDS011;71040;47.526;18.986;2023-09-19T22:49:17;1.63;;;0.60;;
70313;SDS011;71040;47.526;18.986;2023-09-19T22:54:19;1.80;;;0.75;;
70313;SDS011;71040;47.526;18.986;2023-09-19T22:59:37;1.02;;;0.40;;
70313;SDS011;71040;47.526;18.986;2023-09-19T23:04:42;3.13;;;0.57;;
70313;SDS011;71040;47.526;18.986;2023-09-19T23:09:49;0.73;;;0.50;;
70313;SDS011;71040;47.526;18.986;2023-09-19T23:14:53;2.25;;;1.02;;
70313;SDS011;71040;47.526;18.986;2023-09-19T23:19:56;2.05;;;1.30;;
70313;SDS011;71040;47.526;18.986;2023-09-19T23:24:56;1.70;;;0.65;;
70313;SDS011;71040;47.526;18.986;2023-09-19T23:30:12;1.23;;;0.80;;
70313;SDS011;71040;47.526;18.986;2023-09-19T23:35:15;1.40;;;0.73;;
70313;SDS011;71040;47.526;18.986;2023-09-19T23:40:20;1.65;;;0.70;;
70313;SDS011;71040;47.526;18.986;2023-09-19T23:45:26;9.88;;;1.10;;
70313;SDS011;71040;47.526;18.986;2023-09-19T23:50:27;2.45;;;0.88;;
70313;SDS011;71040;47.526;18.986;2023-09-19T23:55:29;1.73;;;0.70;;
